Time;durP1;ratioP1;P1;durP2;ratioP2;P2;SDS_P1;SDS_P2;PMS_P1;PMS_P2;Temp;Humidity;BMP_temperature;BMP_pressure;BME280_temperature;BME280_humidity;BME280_pressure;Samples;Min_cycle;Max_cycle;Signal;HPM_P1;HPM_P2
2022/07/02 00:01:52;;;;;;;30.20;5.90;;;;;;;12.64;100.00;98761.50;5037043;28;20041;-57
2022/07/02 00:04:20;;;;;;;43.28;7.03;;;;;;;12.43;100.00;98763.16;5038029;28;20033;-56
2022/07/02 00:06:47;;;;;;;23.63;5.18;;;;;;;12.93;100.00;98760.41;5037037;28;20048;-59
2022/07/02 00:09:13;;;;;;;32.70;6.00;;;;;;;12.99;100.00;98741.00;5036468;28;20044;-59
2022/07/02 00:11:40;;;;;;;26.08;5.63;;;;;;;12.60;100.00;98749.47;5035168;28;20067;-57
2022/07/02 00:14:06;;;;;;;22.30;5.32;;;;;;;12.55;100.00;98762.69;5038901;28;20051;-57
2022/07/02 00:16:32;;;;;;;33.78;6.15;;;;;;;12.47;100.00;98759.53;5035460;28;20225;-57
2022/07/02 00:18:57;;;;;;;24.65;4.80;;;;;;;12.85;100.00;98749.41;5038285;28;20435;-57
2022/07/02 00:21:24;;;;;;;29.38;5.45;;;;;;;12.74;100.00;98752.41;5037826;28;20033;-58
2022/07/02 00:23:50;;;;;;;24.25;4.60;;;;;;;12.97;100.00;98755.91;5037868;28;20036;-56
2022/07/02 00:26:19;;;;;;;36.70;6.63;;;;;;;12.59;100.00;98752.97;5035141;28;20045;-57
2022/07/02 00:28:53;;;;;;;42.47;6.97;;;;;;;12.58;100.00;98757.38;5037539;28;20036;-57
2022/07/02 00:31:19;;;;;;;38.17;6.28;;;;;;;12.53;100.00;98752.31;5036041;28;20041;-56
2022/07/02 00:33:45;;;;;;;43.17;7.00;;;;;;;12.38;100.00;98755.47;5038254;28;20252;-58
2022/07/02 00:36:21;;;;;;;41.58;6.88;;;;;;;12.49;100.00;98750.69;5037614;28;20094;-58
2022/07/02 00:38:48;;;;;;;32.63;6.22;;;;;;;12.33;100.00;98753.03;5036776;28;20025;-58
2022/07/02 00:41:15;;;;;;;34.15;6.25;;;;;;;12.29;100.00;98751.41;5034573;28;20482;-57
2022/07/02 00:43:40;;;;;;;28.80;5.70;;;;;;;12.03;100.00;98754.97;5037393;28;20554;-56
2022/07/02 00:46:06;;;;;;;28.27;5.80;;;;;;;12.32;100.00;98755.72;5037062;28;20053;-58
2022/07/02 00:48:32;;;;;;;37.00;6.30;;;;;;;12.55;100.00;98736.53;5037088;28;20481;-58
2022/07/02 00:50:58;;;;;;;28.50;5.53;;;;;;;12.48;100.00;98750.75;5035692;28;20157;-59
2022/07/02 00:53:23;;;;;;;29.92;5.63;;;;;;;12.16;100.00;98752.78;5037136;28;20121;-59
2022/07/02 00:55:56;;;;;;;31.33;6.03;;;;;;;12.13;100.00;98756.38;5034813;28;20175;-58
2022/07/02 00:58:22;;;;;;;39.00;6.30;;;;;;;12.28;100.00;98759.34;5036704;28;20044;-57
2022/07/02 01:00:48;;;;;;;35.00;6.65;;;;;;;12.62;100.00;98745.03;5039836;28;20415;-58
2022/07/02 01:03:17;;;;;;;38.58;6.68;;;;;;;12.37;100.00;98756.41;5041438;28;20094;-58
2022/07/02 01:05:43;;;;;;;26.85;5.60;;;;;;;11.88;100.00;98751.09;5039962;28;20075;-58
2022/07/02 01:10:54;;;;;;;31.08;6.10;;;;;;;12.05;100.00;98747.91;5043026;28;20075;-57
2022/07/02 01:13:20;;;;;;;29.08;5.43;;;;;;;12.00;100.00;98749.00;5044299;28;20033;-58
2022/07/02 01:15:45;;;;;;;29.23;5.80;;;;;;;12.07;100.00;98751.34;5040088;28;20037;-58
2022/07/02 01:18:17;;;;;;;28.90;5.45;;;;;;;11.99;100.00;98763.84;5041705;28;20099;-59
2022/07/02 01:20:43;;;;;;;26.38;5.20;;;;;;;12.01;100.00;98759.41;5040188;28;20033;-56
2022/07/02 01:23:08;;;;;;;28.58;5.78;;;;;;;12.00;100.00;98759.44;5043280;28;20445;-56
2022/07/02 01:25:33;;;;;;;24.70;4.63;;;;;;;12.59;100.00;98752.97;5043504;28;20045;-57
2022/07/02 01:27:59;;;;;;;24.20;4.63;;;;;;;12.47;100.00;98747.28;5044382;28;20033;-57
2022/07/02 01:30:24;;;;;;;35.00;6.07;;;;;;;12.09;100.00;98754.78;5041927;28;20072;-57
2022/07/02 01:32:49;;;;;;;25.77;5.40;;;;;;;11.89;100.00;98747.59;5043977;28;20194;-58
2022/07/02 01:35:15;;;;;;;26.50;5.45;;;;;;;12.05;100.00;98747.91;5042380;28;20648;-56
2022/07/02 01:37:41;;;;;;;27.75;4.97;;;;;;;12.53;100.00;98744.47;5042552;28;20054;-57
2022/07/02 01:40:07;;;;;;;30.08;5.53;;;;;;;12.22;100.00;98743.84;5042838;28;20657;-56
2022/07/02 01:42:33;;;;;;;26.45;5.35;;;;;;;11.81;100.00;98746.97;5043703;28;20037;-57
2022/07/02 01:44:58;;;;;;;25.08;5.20;;;;;;;11.50;100.00;98744.53;5043973;28;20024;-57
2022/07/02 01:47:24;;;;;;;28.75;5.57;;;;;;;11.75;100.00;98750.66;5044065;28;20036;-57
2022/07/02 01:49:49;;;;;;;26.65;5.32;;;;;;;11.67;100.00;98746.59;5044311;28;20021;-57
2022/07/02 01:52:15;;;;;;;22.80;4.70;;;;;;;12.30;100.00;98745.28;5043191;28;20045;-58
2022/07/02 01:54:42;;;;;;;27.13;5.28;;;;;;;11.85;100.00;98734.66;5042283;28;20517;-58
2022/07/02 01:57:07;;;;;;;21.98;4.70;;;;;;;11.79;100.00;98753.19;5043490;28;20767;-57
2022/07/02 01:59:33;;;;;;;32.47;5.72;;;;;;;11.99;100.00;98747.31;5043151;28;20036;-56
2022/07/02 02:01:59;;;;;;;25.35;4.97;;;;;;;11.99;100.00;98739.47;5041949;28;20039;-57
2022/07/02 02:04:24;;;;;;;25.40;4.68;;;;;;;11.87;100.00;98751.13;5044045;28;20028;-58
2022/07/02 02:06:49;;;;;;;26.65;5.28;;;;;;;11.77;100.00;98742.78;5042437;28;20669;-56
2022/07/02 02:09:15;;;;;;;20.48;4.57;;;;;;;11.95;100.00;98743.94;5043184;28;20036;-57
2022/07/02 02:11:40;;;;;;;28.40;5.40;;;;;;;11.70;100.00;98747.34;5040374;28;20033;-57
2022/07/02 02:14:06;;;;;;;26.75;5.55;;;;;;;11.70;100.00;98742.09;5043329;28;20039;-57
2022/07/02 02:16:32;;;;;;;28.98;5.22;;;;;;;11.88;100.00;98745.88;5042672;28;20545;-57
2022/07/02 02:18:58;;;;;;;30.52;5.20;;;;;;;11.66;100.00;98735.28;5042870;28;20082;-56
2022/07/02 02:21:25;;;;;;;27.35;4.47;;;;;;;11.95;100.00;98746.56;5041298;28;20124;-57
2022/07/02 02:23:52;;;;;;;26.45;5.45;;;;;;;12.07;100.00;98740.03;5043043;28;20075;-58
2022/07/02 02:26:17;;;;;;;22.58;4.88;;;;;;;11.64;100.00;98742.31;5041541;28;20047;-57
2022/07/02 02:28:42;;;;;;;32.03;5.50;;;;;;;11.63;100.00;98751.06;5042098;28;20021;-57
2022/07/02 02:31:08;;;;;;;32.67;5.55;;;;;;;11.95;100.00;98757.00;5041235;28;20082;-56
2022/07/02 02:33:33;;;;;;;24.00;5.05;;;;;;;11.57;100.00;98757.34;5042648;28;20112;-58
2022/07/02 02:35:59;;;;;;;27.88;5.38;;;;;;;11.53;100.00;98768.81;5042606;28;20040;-57
2022/07/02 02:38:25;;;;;;;27.92;5.60;;;;;;;11.58;100.00;98760.84;5042825;28;20073;-57
2022/07/02 02:40:50;;;;;;;22.95;4.90;;;;;;;11.77;100.00;98766.28;5042559;28;20879;-57
2022/07/02 02:43:15;;;;;;;25.83;5.18;;;;;;;11.86;100.00;98767.75;5042426;28;20355;-58
2022/07/02 02:45:41;;;;;;;23.42;5.20;;;;;;;12.03;100.00;98762.81;5042719;28;20037;-57
2022/07/02 02:48:06;;;;;;;25.80;4.75;;;;;;;11.82;100.00;98755.66;5042483;28;20028;-56
2022/07/02 02:50:31;;;;;;;27.27;5.18;;;;;;;11.98;100.00;98772.56;5041933;28;20036;-57
2022/07/02 02:52:57;;;;;;;25.95;5.00;;;;;;;11.96;100.00;98763.94;5042609;28;20068;-57
2022/07/02 02:55:22;;;;;;;32.25;6.00;;;;;;;11.42;100.00;98764.84;5042415;28;20048;-56
2022/07/02 02:57:48;;;;;;;22.85;4.90;;;;;;;11.90;100.00;98758.91;5042599;28;20128;-57
2022/07/02 03:00:13;;;;;;;37.05;5.90;;;;;;;11.75;100.00;98753.28;5040509;28;20475;-59
2022/07/02 03:02:39;;;;;;;26.65;4.93;;;;;;;12.02;100.00;98755.00;5042382;28;20020;-56
2022/07/02 03:05:04;;;;;;;30.63;5.65;;;;;;;11.84;100.00;98756.50;5042313;28;20106;-57
2022/07/02 03:07:30;;;;;;;32.35;5.35;;;;;;;11.68;100.00;98750.91;5041873;28;20029;-57
2022/07/02 03:09:56;;;;;;;36.38;6.03;;;;;;;11.61;100.00;98752.03;5041403;28;20036;-56
2022/07/02 03:12:21;;;;;;;29.00;5.60;;;;;;;11.67;100.00;98757.91;5041006;28;20118;-59
2022/07/02 03:14:46;;;;;;;32.13;5.78;;;;;;;11.52;100.00;98764.50;5041746;28;20490;-58
2022/07/02 03:17:12;;;;;;;23.63;4.88;;;;;;;11.80;100.00;98757.47;5041798;28;20159;-57
2022/07/02 03:19:37;;;;;;;28.83;5.00;;;;;;;12.27;100.00;98757.63;5041558;28;20101;-57
2022/07/02 03:22:03;;;;;;;24.25;4.75;;;;;;;11.86;100.00;98763.38;5040740;28;20060;-58
2022/07/02 03:24:28;;;;;;;25.80;5.07;;;;;;;11.52;100.00;98771.47;5041508;28;20037;-57
2022/07/02 03:26:54;;;;;;;25.90;5.00;;;;;;;11.54;100.00;98772.25;5041870;28;20134;-57
2022/07/02 03:29:19;;;;;;;26.90;5.40;;;;;;;11.41;100.00;98776.19;5041589;28;20105;-57
2022/07/02 03:31:44;;;;;;;34.08;6.13;;;;;;;11.33;100.00;98787.72;5040195;28;20041;-57
2022/07/02 03:34:10;;;;;;;24.10;5.10;;;;;;;11.24;100.00;98787.16;5041918;28;20028;-56
2022/07/02 03:36:35;;;;;;;35.35;5.10;;;;;;;11.68;100.00;98795.34;5042779;28;20110;-57
2022/07/02 03:39:00;;;;;;;23.55;4.50;;;;;;;11.92;100.00;98791.09;5040965;28;20052;-57
2022/07/02 03:41:26;;;;;;;24.70;5.47;;;;;;;11.47;100.00;98792.53;5040799;28;20530;-56
2022/07/02 03:43:51;;;;;;;34.80;6.13;;;;;;;11.72;100.00;98792.56;5041271;28;20027;-56
2022/07/02 03:46:17;;;;;;;27.50;5.35;;;;;;;11.26;100.00;98786.22;5041335;28;20090;-56
2022/07/02 03:48:43;;;;;;;27.92;4.85;;;;;;;11.74;100.00;98795.13;5041908;28;20051;-56
2022/07/02 03:51:09;;;;;;;24.73;4.50;;;;;;;11.86;100.00;98791.28;5040310;28;20044;-56
2022/07/02 03:53:34;;;;;;;20.45;4.50;;;;;;;11.93;100.00;98790.19;5041694;28;20021;-57
2022/07/02 03:55:59;;;;;;;26.90;5.40;;;;;;;11.86;100.00;98788.66;5040711;28;20039;-56
2022/07/02 03:58:25;;;;;;;32.47;5.82;;;;;;;11.72;100.00;98797.78;5041684;28;20445;-59
2022/07/02 04:00:50;;;;;;;32.28;5.72;;;;;;;11.76;100.00;98798.53;5040027;28;20384;-57
2022/07/02 04:03:16;;;;;;;29.75;5.50;;;;;;;12.14;100.00;98793.81;5041421;28;20020;-56
2022/07/02 04:05:41;;;;;;;26.38;5.53;;;;;;;12.29;100.00;98790.66;5041075;28;20118;-57
2022/07/02 04:08:06;;;;;;;24.85;5.00;;;;;;;12.34;100.00;98793.13;5039646;28;20077;-57
2022/07/02 04:10:32;;;;;;;25.88;4.65;;;;;;;13.05;100.00;98798.38;5040311;28;20116;-57
2022/07/02 04:12:57;;;;;;;32.90;5.63;;;;;;;12.72;100.00;98785.66;5041252;28;20104;-57
2022/07/02 04:15:23;;;;;;;30.02;5.72;;;;;;;12.51;100.00;98797.75;5040478;28;20872;-57
2022/07/02 04:17:48;;;;;;;19.48;4.70;;;;;;;13.76;100.00;98791.19;5039654;28;20025;-57
2022/07/02 04:20:13;;;;;;;23.75;4.43;;;;;;;15.27;100.00;98783.72;5028233;28;20071;-57
2022/07/02 04:22:39;;;;;;;25.55;4.90;;;;;;;16.14;100.00;98770.69;5041824;28;20049;-58
2022/07/02 04:25:05;;;;;;;24.27;4.95;;;;;;;15.58;100.00;98768.13;5040373;28;20674;-57
2022/07/02 04:27:30;;;;;;;27.40;5.18;;;;;;;16.31;100.00;98760.13;5041414;28;20104;-57
2022/07/02 04:29:56;;;;;;;28.45;5.00;;;;;;;17.04;100.00;98745.72;5040460;28;20140;-57
2022/07/02 04:32:22;;;;;;;23.60;4.60;;;;;;;17.51;100.00;98745.66;5040508;28;20065;-57
2022/07/02 04:34:47;;;;;;;23.20;4.68;;;;;;;17.51;100.00;98737.75;5039880;28;20016;-58
2022/07/02 04:37:13;;;;;;;26.25;4.38;;;;;;;17.52;100.00;98731.56;5040486;28;20086;-58
2022/07/02 04:39:38;;;;;;;20.13;4.43;;;;;;;15.95;100.00;98729.53;5040695;28;20412;-57
2022/07/02 04:42:04;;;;;;;19.85;3.90;;;;;;;16.45;100.00;98743.59;5038922;28;20052;-57
2022/07/02 04:44:29;;;;;;;24.50;4.75;;;;;;;15.68;100.00;98744.00;5040041;28;20055;-57
2022/07/02 04:46:55;;;;;;;20.48;4.68;;;;;;;15.03;100.00;98761.16;5040595;28;20518;-57
2022/07/02 04:49:20;;;;;;;20.05;4.70;;;;;;;15.06;100.00;98757.53;5040364;28;20044;-57
2022/07/02 04:51:46;;;;;;;26.67;4.82;;;;;;;15.75;100.00;98753.34;5039471;28;20406;-57
2022/07/02 04:54:11;;;;;;;19.08;4.15;;;;;;;15.59;100.00;98769.84;5040146;28;20206;-58
2022/07/02 04:56:36;;;;;;;22.13;4.55;;;;;;;16.07;100.00;98759.59;5040298;28;20494;-57
2022/07/02 04:59:02;;;;;;;20.73;4.13;;;;;;;17.81;100.00;98736.94;5040164;28;20021;-57
2022/07/02 05:01:28;;;;;;;22.95;4.60;;;;;;;18.87;100.00;98740.22;5039572;28;20080;-57
2022/07/02 05:03:54;;;;;;;18.25;3.67;;;;;;;21.33;100.00;98727.94;5040640;28;20025;-57
2022/07/02 05:06:21;;;;;;;18.70;4.28;;;;;;;21.64;100.00;98731.00;5039592;28;20072;-58
2022/07/02 05:08:46;;;;;;;23.50;4.30;;;;;;;22.27;100.00;98731.56;5039998;28;20041;-60
2022/07/02 05:11:13;;;;;;;16.52;3.65;;;;;;;24.77;100.00;98726.03;5039735;28;20453;-57
2022/07/02 05:13:39;;;;;;;18.95;4.20;;;;;;;26.73;77.68;98734.88;5040457;28;20033;-58
2022/07/02 05:16:04;;;;;;;14.52;3.35;;;;;;;27.37;69.99;98733.13;5040001;28;20054;-57
2022/07/02 05:18:30;;;;;;;16.67;3.78;;;;;;;27.34;66.40;98738.78;5040149;28;20029;-58
2022/07/02 05:20:55;;;;;;;13.10;3.42;;;;;;;27.77;59.69;98739.81;5038826;28;20053;-58
2022/07/02 05:23:20;;;;;;;14.82;3.40;;;;;;;27.95;59.93;98736.31;5040360;28;20032;-58
2022/07/02 05:25:46;;;;;;;14.25;3.47;;;;;;;28.94;56.38;98727.84;5039641;28;20466;-58
2022/07/02 05:28:11;;;;;;;12.63;3.17;;;;;;;27.02;62.23;98734.72;5040319;28;20055;-58
2022/07/02 05:30:37;;;;;;;15.10;3.55;;;;;;;28.44;54.44;98728.59;5038508;28;20576;-58
2022/07/02 05:33:02;;;;;;;13.45;3.10;;;;;;;26.96;58.34;98735.31;5040151;28;20091;-56
2022/07/02 05:35:27;;;;;;;11.13;3.00;;;;;;;29.02;52.49;98730.56;5039956;28;20132;-56
2022/07/02 05:37:53;;;;;;;8.05;2.90;;;;;;;30.85;48.73;98731.19;5040337;28;20075;-58
2022/07/02 05:40:18;;;;;;;11.70;3.30;;;;;;;30.50;48.75;98729.84;5039334;28;20025;-57
2022/07/02 05:42:44;;;;;;;10.65;3.10;;;;;;;31.73;45.86;98733.78;5040123;28;20044;-59
2022/07/02 05:45:10;;;;;;;12.07;3.05;;;;;;;31.65;45.66;98740.91;5040676;28;20024;-57
2022/07/02 05:47:35;;;;;;;9.30;2.47;;;;;;;31.60;45.69;98742.47;5044534;28;20123;-56
2022/07/02 05:50:00;;;;;;;11.85;3.40;;;;;;;31.85;43.75;98746.66;5042928;28;20263;-57
2022/07/02 05:52:26;;;;;;;8.13;2.78;;;;;;;31.97;43.01;98738.94;5042429;28;20056;-59
2022/07/02 05:54:52;;;;;;;8.50;2.53;;;;;;;32.16;42.97;98736.78;5043962;28;20954;-56
2022/07/02 05:57:17;;;;;;;11.95;3.10;;;;;;;30.90;47.60;98736.91;5042801;28;20044;-56
2022/07/02 05:59:42;;;;;;;8.70;2.67;;;;;;;33.09;42.79;98738.09;5043000;28;20036;-58
2022/07/02 06:02:08;;;;;;;8.65;2.65;;;;;;;32.66;43.96;98746.03;5042661;28;20438;-57
2022/07/02 06:04:33;;;;;;;6.93;2.35;;;;;;;30.85;45.46;98739.28;5044033;28;20068;-57
2022/07/02 06:09:44;;;;;;;12.38;2.78;;;;;;;31.04;43.67;98734.50;5043616;28;20067;-60
2022/07/02 06:12:09;;;;;;;8.45;2.30;;;;;;;30.43;46.94;98732.34;5041993;28;20041;-59
2022/07/02 06:14:35;;;;;;;8.45;2.42;;;;;;;31.79;44.95;98733.03;5043281;28;20028;-58
2022/07/02 06:17:00;;;;;;;5.85;2.10;;;;;;;32.98;43.06;98728.59;5043962;28;20087;-59
2022/07/02 06:19:26;;;;;;;9.18;2.95;;;;;;;32.26;43.05;98723.88;5043307;28;20127;-57
2022/07/02 06:21:51;;;;;;;8.10;2.65;;;;;;;33.18;42.72;98730.75;5042194;28;20037;-59
2022/07/02 06:24:16;;;;;;;7.35;2.70;;;;;;;32.85;42.42;98729.28;5043246;28;20029;-58
2022/07/02 06:26:42;;;;;;;10.73;2.60;;;;;;;33.58;41.26;98726.59;5041859;28;20029;-57
2022/07/02 06:29:07;;;;;;;9.15;2.63;;;;;;;34.06;40.72;98730.53;5043049;28;20056;-57
2022/07/02 06:31:33;;;;;;;6.20;2.33;;;;;;;33.03;42.59;98719.91;5042407;28;20770;-59
2022/07/02 06:33:58;;;;;;;6.30;2.22;;;;;;;33.59;40.78;98706.59;5042983;28;20021;-58
2022/07/02 06:36:24;;;;;;;6.93;2.20;;;;;;;34.02;40.10;98710.31;5043202;28;20667;-57
2022/07/02 06:38:50;;;;;;;7.05;2.50;;;;;;;32.27;41.80;98706.63;5043496;28;20063;-59
2022/07/02 06:42:18;;;;;;;6.35;2.42;;;;;;;35.90;37.12;98710.91;5041041;28;20071;-57
2022/07/02 06:44:03;;;;;;;5.72;2.13;;;;;;;32.30;42.15;98705.44;5042451;28;20037;-58
2022/07/02 06:46:28;;;;;;;6.90;2.30;;;;;;;30.59;46.85;98714.50;5041864;28;20033;-59
2022/07/02 06:48:54;;;;;;;6.25;2.20;;;;;;;31.23;43.45;98714.34;5042305;28;20025;-57
2022/07/02 06:51:20;;;;;;;7.43;2.30;;;;;;;33.69;40.48;98713.59;5041890;28;20039;-60
2022/07/02 06:53:45;;;;;;;6.43;1.90;;;;;;;35.67;37.67;98716.72;5042848;28;20139;-59
2022/07/02 06:56:11;;;;;;;5.78;2.15;;;;;;;34.88;37.49;98715.47;5043002;28;20049;-58
2022/07/02 06:58:36;;;;;;;9.25;2.65;;;;;;;34.94;38.12;98709.22;5041932;28;20033;-59
2022/07/02 07:01:02;;;;;;;8.88;2.45;;;;;;;35.38;37.57;98718.75;5040168;28;20033;-60
2022/07/02 07:03:27;;;;;;;7.03;2.38;;;;;;;34.71;38.02;98715.81;5043376;28;20207;-58
2022/07/02 07:05:52;;;;;;;6.53;2.17;;;;;;;33.09;40.64;98716.47;5041689;28;20043;-58
2022/07/02 07:08:18;;;;;;;6.38;2.30;;;;;;;33.02;39.27;98710.97;5037564;28;20143;-59
2022/07/02 07:10:44;;;;;;;5.93;2.00;;;;;;;34.05;38.04;98704.53;5039187;28;20126;-59
2022/07/02 07:13:09;;;;;;;6.25;2.20;;;;;;;34.65;37.79;98710.31;5041817;28;20139;-59
2022/07/02 07:15:35;;;;;;;7.90;1.92;;;;;;;34.72;37.62;98705.78;5041431;28;20449;-59
2022/07/02 07:18:00;;;;;;;5.63;2.03;;;;;;;35.52;37.23;98711.50;5041525;28;20032;-58
2022/07/02 07:20:29;;;;;;;6.60;2.50;;;;;;;32.65;39.98;98710.09;5038740;28;20052;-58
2022/07/02 07:22:59;;;;;;;5.88;2.10;;;;;;;32.79;38.12;98704.88;5039090;28;20025;-59
2022/07/02 07:25:25;;;;;;;8.15;2.33;;;;;;;35.74;35.06;98708.63;5039933;28;20072;-60
2022/07/02 07:27:50;;;;;;;5.55;2.10;;;;;;;35.80;35.11;98713.22;5042475;28;20027;-58
2022/07/02 07:30:16;;;;;;;6.20;2.17;;;;;;;36.08;35.44;98715.69;5039708;28;20069;-60
2022/07/02 07:32:42;;;;;;;6.07;2.20;;;;;;;34.30;37.21;98713.88;5042917;28;20528;-58
2022/07/02 07:35:08;;;;;;;7.15;2.28;;;;;;;32.22;39.20;98714.44;5040270;28;21217;-58
2022/07/02 07:37:35;;;;;;;5.82;2.15;;;;;;;35.81;36.01;98709.47;5039227;28;20475;-59
2022/07/02 07:40:02;;;;;;;8.38;2.78;;;;;;;32.85;39.66;98699.56;5038604;28;20060;-60
2022/07/02 07:42:28;;;;;;;7.28;2.30;;;;;;;34.42;37.61;98705.19;5038417;28;20100;-59
2022/07/02 07:44:53;;;;;;;7.00;2.10;;;;;;;34.63;37.33;98702.41;5041731;28;20112;-59
2022/07/02 07:47:19;;;;;;;5.38;2.10;;;;;;;34.46;37.15;98703.75;5040878;28;20031;-59
2022/07/02 07:49:44;;;;;;;7.18;2.72;;;;;;;36.21;32.90;98704.88;5041610;28;20056;-58
2022/07/02 07:52:10;;;;;;;6.72;2.80;;;;;;;35.49;33.71;98701.91;5040711;28;20502;-58
2022/07/02 07:54:36;;;;;;;8.32;3.08;;;;;;;35.17;33.59;98708.06;5041489;28;20072;-58
2022/07/02 07:57:02;;;;;;;6.30;2.67;;;;;;;34.71;34.28;98699.53;5041874;28;20041;-59
2022/07/02 07:59:28;;;;;;;11.90;3.15;;;;;;;34.60;33.75;98702.81;5040770;28;20033;-59
2022/07/02 08:01:53;;;;;;;6.85;2.20;;;;;;;34.74;31.62;98704.56;5039945;28;20064;-58
2022/07/02 08:04:18;;;;;;;7.47;2.90;;;;;;;37.54;29.99;98691.75;5041257;28;20032;-58
2022/07/02 08:06:44;;;;;;;6.75;2.88;;;;;;;34.39;32.79;98701.03;5037317;28;20085;-58
2022/07/02 08:09:09;;;;;;;9.23;3.10;;;;;;;35.07;32.83;98697.59;5038876;28;20130;-59
2022/07/02 08:11:35;;;;;;;5.78;2.55;;;;;;;30.40;38.96;98705.78;5037342;28;20041;-60
2022/07/02 08:14:00;;;;;;;9.23;2.90;;;;;;;29.15;41.63;98697.03;5040185;28;20024;-59
2022/07/02 08:16:26;;;;;;;8.43;2.65;;;;;;;28.20;41.74;98697.97;5040640;28;20076;-60
2022/07/02 08:18:51;;;;;;;15.43;3.53;;;;;;;32.65;36.46;98695.78;5040019;28;20958;-59
2022/07/02 08:21:17;;;;;;;11.40;2.70;;;;;;;32.40;34.95;98693.31;5039591;28;20055;-59
2022/07/02 08:23:43;;;;;;;8.98;2.40;;;;;;;29.48;38.08;98694.41;5040705;28;20128;-59
2022/07/02 08:26:08;;;;;;;11.95;2.67;;;;;;;32.17;34.65;98698.81;5038723;28;20041;-58
2022/07/02 08:28:34;;;;;;;12.73;2.50;;;;;;;37.00;28.76;98697.50;5038118;28;20031;-59
2022/07/02 08:31:00;;;;;;;9.27;2.50;;;;;;;34.03;30.22;98701.19;5033819;28;20277;-61
2022/07/02 08:33:26;;;;;;;9.40;2.42;;;;;;;36.30;28.96;98696.47;5040564;28;20017;-59
2022/07/02 08:35:51;;;;;;;9.70;2.60;;;;;;;35.27;29.29;98703.94;5039554;28;20067;-59
2022/07/02 08:38:17;;;;;;;11.05;2.92;;;;;;;32.66;32.84;98689.31;5035991;28;20024;-59
2022/07/02 08:40:45;;;;;;;9.85;2.40;;;;;;;31.83;34.26;98693.88;5036270;28;20029;-59
2022/07/02 08:43:15;;;;;;;11.27;2.58;;;;;;;31.26;34.69;98690.59;5039979;28;20548;-58
2022/07/02 08:45:44;;;;;;;10.85;2.65;;;;;;;31.76;34.52;98676.75;5039086;28;20114;-58
2022/07/02 08:48:11;;;;;;;15.02;3.10;;;;;;;31.85;35.21;98678.34;5040515;28;20032;-58
2022/07/02 08:50:38;;;;;;;14.40;2.97;;;;;;;33.78;32.65;98677.25;5037285;28;20041;-58
2022/07/02 08:53:07;;;;;;;11.55;2.60;;;;;;;35.22;29.90;98678.47;5045501;28;20033;-59
2022/07/02 08:55:34;;;;;;;11.05;2.40;;;;;;;32.83;31.85;98679.16;5039784;28;20048;-58
2022/07/02 08:58:00;;;;;;;12.32;2.45;;;;;;;34.62;30.41;98675.50;5040305;28;20049;-58
2022/07/02 09:00:28;;;;;;;17.30;3.20;;;;;;;33.84;30.78;98672.91;5036433;28;20028;-57
2022/07/02 09:02:54;;;;;;;13.77;2.88;;;;;;;35.13;28.65;98669.69;5036382;28;20071;-59
2022/07/02 09:05:24;;;;;;;16.65;3.63;;;;;;;33.50;31.24;98672.59;5036033;28;20029;-58
2022/07/02 09:07:50;;;;;;;11.38;2.60;;;;;;;34.51;30.50;98666.09;5039262;28;20027;-60
2022/07/02 09:10:17;;;;;;;15.05;2.63;;;;;;;33.42;31.26;98662.78;5038248;28;20028;-58
2022/07/02 09:12:44;;;;;;;8.45;1.92;;;;;;;33.41;29.91;98665.66;5039385;28;20025;-58
2022/07/02 09:15:10;;;;;;;10.77;2.40;;;;;;;34.15;29.13;98667.09;5039553;28;20033;-58
2022/07/02 09:17:36;;;;;;;12.15;2.60;;;;;;;33.47;29.98;98654.09;5040109;28;20024;-58
2022/07/02 09:20:04;;;;;;;12.65;2.95;;;;;;;33.91;29.49;98655.72;5040032;28;20029;-58
2022/07/02 09:22:56;;;;;;;9.02;2.35;;;;;;;33.57;30.92;98649.16;5042826;28;20041;-58
2022/07/02 09:25:26;;;;;;;9.13;2.03;;;;;;;32.85;30.68;98650.09;5039511;28;20266;-58
2022/07/02 09:28:00;;;;;;;10.85;2.38;;;;;;;35.00;28.08;98654.22;5043518;28;20033;-60
2022/07/02 09:30:29;;;;;;;12.48;3.03;;;;;;;31.85;31.86;98654.06;5039833;28;20052;-59
2022/07/02 09:35:40;;;;;;;10.77;2.20;;;;;;;32.72;29.94;98644.53;5043747;28;20039;-52
2022/07/02 09:38:10;;;;;;;9.80;2.30;;;;;;;34.63;29.35;98650.06;5043910;28;20041;-58
2022/07/02 09:40:50;;;;;;;9.82;2.58;;;;;;;34.75;28.25;98645.78;5041372;28;20365;-58
2022/07/02 09:43:33;;;;;;;9.45;2.22;;;;;;;33.56;30.08;98647.50;5043123;28;20425;-58
2022/07/02 09:46:00;;;;;;;11.45;2.50;;;;;;;32.81;29.86;98638.84;5043532;28;20083;-58
2022/07/02 09:48:26;;;;;;;8.40;2.17;;;;;;;30.26;33.45;98625.78;5043649;28;20039;-58
2022/07/02 09:50:54;;;;;;;10.90;2.60;;;;;;;31.85;30.47;98644.16;5041155;28;20041;-57
2022/07/02 09:53:20;;;;;;;8.93;2.35;;;;;;;32.50;30.47;98639.06;5043054;28;20025;-58
2022/07/02 09:55:50;;;;;;;12.15;2.70;;;;;;;34.19;28.54;98635.94;5042933;28;20048;-58
2022/07/02 09:58:26;;;;;;;10.00;2.40;;;;;;;34.34;28.28;98631.22;5030363;28;20071;-57
2022/07/02 10:00:53;;;;;;;11.20;2.80;;;;;;;30.92;31.72;98620.94;5037315;28;20099;-58
2022/07/02 10:03:18;;;;;;;13.40;2.80;;;;;;;33.36;29.02;98624.84;5039651;28;20106;-58
2022/07/02 10:05:52;;;;;;;8.05;2.08;;;;;;;34.07;28.53;98623.97;5042445;28;20646;-58
2022/07/02 10:08:18;;;;;;;9.23;2.40;;;;;;;34.28;27.86;98626.63;5042720;28;20032;-58
2022/07/02 10:10:43;;;;;;;7.18;2.03;;;;;;;33.89;30.17;98619.88;5041087;28;20126;-58
2022/07/02 10:13:11;;;;;;;10.65;2.35;;;;;;;34.44;28.15;98611.06;5042759;28;20025;-58
2022/07/02 10:15:40;;;;;;;8.23;2.17;;;;;;;34.53;28.44;98616.06;5042427;28;20044;-58
2022/07/02 10:18:06;;;;;;;11.60;2.88;;;;;;;30.98;32.79;98608.63;5041925;28;20543;-58
2022/07/02 10:20:33;;;;;;;10.60;2.53;;;;;;;31.73;32.13;98607.03;5041234;28;20047;-58
2022/07/02 10:23:04;;;;;;;9.10;2.20;;;;;;;34.17;29.14;98606.34;5042959;28;20094;-59
2022/07/02 10:25:31;;;;;;;;;;;;;;;31.70;31.51;98614.44;5043962;28;20449;-59
2022/07/02 10:27:57;;;;;;;10.25;2.13;;;;;;;33.02;29.41;98607.47;5043152;28;20620;-58
2022/07/02 10:30:42;;;;;;;16.67;3.00;;;;;;;32.20;30.14;98603.13;5038861;28;20545;-58
2022/07/02 10:33:13;;;;;;;12.13;2.53;;;;;;;31.26;31.45;98612.44;5040856;28;20075;-58
2022/07/02 10:35:39;;;;;;;;;;;;;;;32.54;29.74;98615.22;5040742;28;20108;-58
2022/07/02 10:38:05;;;;;;;11.00;2.65;;;;;;;31.68;30.67;98612.94;5042019;28;20015;-57
2022/07/02 10:40:31;;;;;;;10.25;2.45;;;;;;;31.75;30.19;98611.19;5041072;28;20112;-58
2022/07/02 10:42:59;;;;;;;10.50;2.42;;;;;;;29.66;32.46;98622.50;5042730;28;20450;-58
2022/07/02 10:45:25;;;;;;;11.73;2.72;;;;;;;29.30;33.13;98609.44;5042302;28;20041;-58
2022/07/02 10:48:08;;;;;;;19.50;2.53;;;;;;;32.28;30.20;98611.16;5042948;28;20021;-58
2022/07/02 10:50:34;;;;;;;9.05;2.13;;;;;;;32.22;29.33;98611.88;5040636;28;20037;-60
2022/07/02 10:53:06;;;;;;;12.65;3.20;;;;;;;31.06;30.94;98609.41;5041473;28;20044;-58
2022/07/02 10:55:32;;;;;;;12.75;2.67;;;;;;;32.13;29.95;98594.13;5041441;28;20496;-59
2022/07/02 10:58:05;;;;;;;10.63;2.50;;;;;;;32.32;29.21;98601.66;5042678;28;20040;-58
2022/07/02 11:00:38;;;;;;;11.60;2.42;;;;;;;32.45;28.79;98591.00;5038033;28;20041;-58
2022/07/02 11:03:16;;;;;;;10.80;2.75;;;;;;;30.22;31.09;98589.44;5040732;28;20837;-58
2022/07/02 11:06:02;;;;;;;10.10;2.30;;;;;;;31.92;29.37;98590.28;5041868;28;20126;-58
2022/07/02 11:08:49;;;;;;;17.23;3.40;;;;;;;30.28;30.62;98578.00;5039424;28;20502;-58
2022/07/02 11:11:36;;;;;;;12.27;2.53;;;;;;;31.80;29.68;98572.88;5037499;28;20557;-58
2022/07/02 11:14:04;;;;;;;12.82;2.40;;;;;;;30.65;29.12;98566.53;5040436;28;20037;-58
2022/07/02 11:16:37;;;;;;;12.40;2.72;;;;;;;31.25;29.45;98562.25;5041052;28;20128;-58
2022/07/02 11:19:03;;;;;;;11.52;2.47;;;;;;;32.30;27.85;98551.59;5037681;28;20172;-58
2022/07/02 11:21:29;;;;;;;10.68;2.45;;;;;;;30.25;30.87;98554.94;5037632;28;20073;-58
2022/07/02 11:23:54;;;;;;;14.35;2.95;;;;;;;30.15;31.35;98543.56;5040344;28;20147;-58
2022/07/02 11:26:27;;;;;;;12.02;2.53;;;;;;;30.97;28.00;98537.72;5041955;28;20160;-58
2022/07/02 11:28:54;;;;;;;13.68;2.75;;;;;;;32.46;27.43;98537.84;5041159;28;20028;-58
2022/07/02 11:31:22;;;;;;;9.65;2.13;;;;;;;31.16;27.65;98547.19;5038983;28;20518;-59